createdAt,value
2018-12-17T00:00:48.282Z,43.40
2018-12-17T00:01:48.243Z,41.80
2018-12-17T00:02:48.207Z,41.70
2018-12-17T00:03:48.170Z,42.90
2018-12-17T00:04:48.135Z,45.50
2018-12-17T00:05:48.098Z,44.80
2018-12-17T00:06:48.064Z,42.20
2018-12-17T00:07:48.025Z,47.30
2018-12-17T00:08:47.990Z,43.30
2018-12-17T00:09:47.953Z,43.90
2018-12-17T00:10:47.920Z,43.00
2018-12-17T00:11:47.880Z,46.00
2018-12-17T00:12:47.846Z,45.30
2018-12-17T00:13:47.808Z,48.50
2018-12-17T00:14:47.773Z,47.40
2018-12-17T00:15:47.736Z,47.50
2018-12-17T00:16:47.700Z,45.40
2018-12-17T00:17:47.662Z,51.00
2018-12-17T00:18:47.626Z,48.60
2018-12-17T00:19:47.590Z,47.20
2018-12-17T00:20:47.553Z,45.40
2018-12-17T00:21:47.518Z,45.90
2018-12-17T00:22:47.481Z,48.30
2018-12-17T00:23:47.444Z,47.50
2018-12-17T00:24:47.408Z,46.00
2018-12-17T00:25:47.371Z,48.50
2018-12-17T00:26:47.335Z,48.00
2018-12-17T00:27:47.299Z,48.60
2018-12-17T00:28:47.263Z,51.60
2018-12-17T00:29:47.226Z,48.50
2018-12-17T00:30:47.190Z,48.60
2018-12-17T00:31:47.153Z,49.60
2018-12-17T00:32:47.119Z,46.70
2018-12-17T00:33:47.081Z,46.50
2018-12-17T00:34:47.045Z,50.20
2018-12-17T00:35:47.009Z,45.80
2018-12-17T00:36:46.971Z,45.60
2018-12-17T00:37:46.936Z,51.70
2018-12-17T00:38:46.899Z,47.10
2018-12-17T00:39:46.862Z,52.00
2018-12-17T00:40:46.827Z,48.70
2018-12-17T00:41:46.790Z,49.10
2018-12-17T00:42:46.756Z,48.00
2018-12-17T00:43:46.716Z,46.70
2018-12-17T00:44:46.682Z,48.00
2018-12-17T00:45:46.643Z,48.70
2018-12-17T00:46:46.607Z,46.90
2018-12-17T00:47:46.571Z,47.70
2018-12-17T00:48:46.536Z,49.00
2018-12-17T00:49:46.498Z,51.20
2018-12-17T00:50:46.463Z,49.10
2018-12-17T00:51:46.426Z,53.10
2018-12-17T00:52:46.391Z,48.90
2018-12-17T00:53:46.353Z,49.80
2018-12-17T00:54:46.316Z,49.00
2018-12-17T00:55:46.284Z,49.40
2018-12-17T00:56:46.244Z,49.50
2018-12-17T00:57:46.210Z,50.10
2018-12-17T00:58:46.171Z,50.90
2018-12-17T00:59:46.135Z,48.90
2018-12-17T01:00:46.099Z,50.10
2018-12-17T01:01:46.062Z,53.20
2018-12-17T01:02:46.027Z,48.80
2018-12-17T01:03:45.989Z,47.00
2018-12-17T01:04:45.954Z,52.20
2018-12-17T01:05:45.917Z,47.90
2018-12-17T01:06:45.882Z,47.60
2018-12-17T01:07:45.849Z,50.20
2018-12-17T01:08:45.807Z,50.50
2018-12-17T01:09:45.774Z,48.80
2018-12-17T01:10:45.737Z,51.60
2018-12-17T01:11:45.702Z,49.60
2018-12-17T01:12:45.662Z,53.10
2018-12-17T01:13:45.628Z,52.50
2018-12-17T01:14:45.589Z,49.00
2018-12-17T01:15:45.553Z,52.50
2018-12-17T01:16:45.518Z,55.30
2018-12-17T01:17:45.479Z,50.60
2018-12-17T01:18:45.445Z,50.90
2018-12-17T01:19:45.407Z,50.00
2018-12-17T01:20:45.372Z,49.70
2018-12-17T01:21:45.334Z,52.10
2018-12-17T01:22:45.299Z,51.40
2018-12-17T01:23:45.262Z,52.50
2018-12-17T01:24:45.227Z,50.00
2018-12-17T01:25:45.193Z,51.60
2018-12-17T01:26:45.151Z,53.20
2018-12-17T01:27:45.117Z,52.20
2018-12-17T01:28:45.079Z,50.10
2018-12-17T01:29:45.043Z,53.20
2018-12-17T01:30:45.007Z,49.20
2018-12-17T01:31:44.972Z,49.90
2018-12-17T01:32:44.936Z,50.20
2018-12-17T01:33:44.899Z,49.70
2018-12-17T01:34:44.862Z,52.90
2018-12-17T01:35:44.825Z,51.50
2018-12-17T01:36:44.790Z,55.20
2018-12-17T01:37:44.756Z,55.70
2018-12-17T01:38:44.716Z,55.50
2018-12-17T01:39:44.686Z,53.70
2018-12-17T01:40:44.644Z,54.40
2018-12-17T01:41:44.606Z,51.40
2018-12-17T01:42:44.572Z,52.80
2018-12-17T01:43:44.533Z,52.90
2018-12-17T01:44:44.499Z,57.30
2018-12-17T01:45:44.462Z,53.20
2018-12-17T01:46:44.425Z,52.90
2018-12-17T01:47:44.388Z,53.30
2018-12-17T01:48:44.350Z,56.40
2018-12-17T01:49:44.316Z,55.50
2018-12-17T01:50:44.282Z,56.20
2018-12-17T01:51:44.242Z,58.10
2018-12-17T01:52:44.206Z,56.60
2018-12-17T01:53:44.170Z,56.40
2018-12-17T01:54:44.134Z,57.60
2018-12-17T01:55:44.098Z,55.00
2018-12-17T01:56:44.063Z,60.10
2018-12-17T01:57:44.025Z,60.00
2018-12-17T01:58:43.988Z,55.80
2018-12-17T01:59:43.952Z,61.00
2018-12-17T02:00:43.917Z,65.40
2018-12-17T02:01:43.880Z,61.90
2018-12-17T02:02:43.843Z,61.80
2018-12-17T02:03:43.806Z,56.80
2018-12-17T02:04:43.771Z,59.60
2018-12-17T02:05:43.733Z,60.70
2018-12-17T02:06:43.697Z,60.00
2018-12-17T02:07:43.661Z,63.80
2018-12-17T02:08:43.626Z,60.50
2018-12-17T02:09:43.589Z,59.70
2018-12-17T02:10:43.553Z,65.80
2018-12-17T02:11:43.518Z,58.60
2018-12-17T02:12:43.481Z,62.50
2018-12-17T02:13:43.443Z,60.80
2018-12-17T02:14:43.410Z,63.90
2018-12-17T02:15:43.371Z,58.00
2018-12-17T02:16:43.335Z,62.20
2018-12-17T02:17:43.299Z,59.40
2018-12-17T02:18:43.262Z,62.90
2018-12-17T02:19:43.226Z,61.60
2018-12-17T02:20:43.190Z,55.30
2018-12-17T02:21:43.153Z,60.70
2018-12-17T02:22:43.122Z,60.90
2018-12-17T02:23:43.081Z,60.40
2018-12-17T02:24:43.044Z,61.80
2018-12-17T02:25:43.008Z,61.00
2018-12-17T02:26:42.973Z,60.30
2018-12-17T02:27:42.939Z,62.70
2018-12-17T02:28:42.901Z,62.50
2018-12-17T02:29:42.864Z,65.50
2018-12-17T02:30:42.834Z,59.60
2018-12-17T02:31:42.793Z,61.50
2018-12-17T02:32:42.759Z,58.10
2018-12-17T02:33:42.719Z,59.40
2018-12-17T02:34:42.683Z,64.70
2018-12-17T02:35:42.647Z,61.00
2018-12-17T02:36:42.611Z,62.40
2018-12-17T02:37:42.573Z,58.40
2018-12-17T02:38:42.536Z,61.50
2018-12-17T02:39:42.500Z,62.40
2018-12-17T02:40:42.467Z,61.50
2018-12-17T02:41:42.427Z,64.70
2018-12-17T02:42:42.391Z,63.10
2018-12-17T02:43:42.355Z,60.60
2018-12-17T02:44:42.323Z,60.20
2018-12-17T02:45:42.309Z,62.40
2018-12-17T02:46:42.250Z,61.60
2018-12-17T02:47:42.214Z,64.50
2018-12-17T02:48:42.175Z,63.30
2018-12-17T02:49:42.139Z,61.10
2018-12-17T02:50:42.105Z,63.10
2018-12-17T02:51:42.068Z,64.10
2018-12-17T02:52:42.032Z,72.40
2018-12-17T02:53:41.993Z,66.30
2018-12-17T02:54:41.959Z,70.40
2018-12-17T02:55:41.921Z,71.40
2018-12-17T02:56:41.885Z,65.30
2018-12-17T02:57:41.850Z,70.00
2018-12-17T02:58:44.132Z,66.50
2018-12-17T02:59:41.775Z,70.80
2018-12-17T03:00:41.742Z,70.80
2018-12-17T03:01:41.702Z,74.60
2018-12-17T03:02:41.672Z,73.90
2018-12-17T03:03:41.630Z,73.30
2018-12-17T03:04:41.595Z,75.70
2018-12-17T03:05:41.558Z,77.00
2018-12-17T03:06:41.522Z,77.40
2018-12-17T03:07:41.489Z,78.20
2018-12-17T03:08:41.449Z,73.80
2018-12-17T03:09:41.412Z,77.10
2018-12-17T03:10:41.375Z,85.30
2018-12-17T03:11:41.339Z,83.40
2018-12-17T03:12:41.305Z,80.80
2018-12-17T03:13:41.269Z,81.20
2018-12-17T03:14:41.232Z,87.60
2018-12-17T03:15:41.194Z,79.60
2018-12-17T03:16:41.159Z,80.70
2018-12-17T03:17:41.120Z,79.60
2018-12-17T03:18:41.087Z,93.00
2018-12-17T03:19:41.050Z,88.70
2018-12-17T03:20:41.013Z,89.90
2018-12-17T03:21:40.976Z,84.80
2018-12-17T03:22:40.941Z,87.10
2018-12-17T03:23:40.906Z,86.50
2018-12-17T03:24:40.867Z,90.10
2018-12-17T03:25:40.830Z,96.40
2018-12-17T03:26:40.795Z,87.90
2018-12-17T03:27:40.757Z,90.70
2018-12-17T03:28:40.733Z,83.90
2018-12-17T03:29:40.685Z,83.50
2018-12-17T03:30:40.650Z,90.00
2018-12-17T03:31:40.614Z,88.80
2018-12-17T03:32:40.578Z,95.30
2018-12-17T03:33:40.540Z,96.60
2018-12-17T03:34:40.529Z,99.60
2018-12-17T03:35:40.466Z,102.00
2018-12-17T03:36:40.431Z,94.90
2018-12-17T03:37:40.394Z,91.60
2018-12-17T03:38:40.357Z,92.40
2018-12-17T03:39:40.320Z,88.20
2018-12-17T03:40:40.285Z,92.90
2018-12-17T03:41:40.248Z,93.10
2018-12-17T03:42:40.213Z,95.00
2018-12-17T03:43:40.176Z,93.60
2018-12-17T03:44:40.140Z,90.30
2018-12-17T03:45:40.102Z,93.80
2018-12-17T03:46:40.102Z,98.70
2018-12-17T03:47:40.030Z,100.20
2018-12-17T03:48:39.996Z,101.50
2018-12-17T03:49:39.958Z,101.10
2018-12-17T03:50:39.920Z,100.30
2018-12-17T03:51:39.887Z,105.70
2018-12-17T03:52:39.848Z,110.30
2018-12-17T03:53:39.810Z,111.20
2018-12-17T03:54:39.774Z,102.40
2018-12-17T03:55:39.738Z,101.70
2018-12-17T03:56:39.702Z,100.10
2018-12-17T03:57:39.666Z,107.30
2018-12-17T03:58:39.630Z,103.30
2018-12-17T03:59:39.592Z,102.60
2018-12-17T04:00:39.558Z,103.20
2018-12-17T04:01:39.519Z,103.60
2018-12-17T04:02:39.483Z,104.80
2018-12-17T04:03:39.447Z,111.80
2018-12-17T04:04:39.420Z,101.40
2018-12-17T04:05:39.373Z,105.10
2018-12-17T04:06:39.339Z,101.20
2018-12-17T04:07:39.302Z,105.80
2018-12-17T04:08:39.267Z,104.70
2018-12-17T04:09:39.228Z,112.10
2018-12-17T04:10:40.044Z,100.90
2018-12-17T04:11:39.158Z,107.40
2018-12-17T04:12:39.120Z,109.40
2018-12-17T04:13:39.083Z,105.00
2018-12-17T04:14:39.046Z,110.00
2018-12-17T04:15:39.011Z,103.50
2018-12-17T04:16:38.974Z,103.90
2018-12-17T04:17:38.940Z,105.90
2018-12-17T04:18:38.903Z,111.40
2018-12-17T04:19:38.864Z,104.70
2018-12-17T04:20:38.830Z,104.60
2018-12-17T04:21:38.795Z,102.70
2018-12-17T04:22:38.758Z,101.60
2018-12-17T04:23:38.725Z,106.30
2018-12-17T04:24:38.685Z,101.70
2018-12-17T04:25:38.649Z,102.00
2018-12-17T04:26:38.610Z,106.40
2018-12-17T04:27:38.577Z,100.10
2018-12-17T04:28:38.539Z,101.00
2018-12-17T04:29:38.503Z,96.50
2018-12-17T04:30:38.467Z,98.30
2018-12-17T04:31:38.430Z,104.60
2018-12-17T04:32:38.396Z,108.70
2018-12-17T04:33:38.358Z,103.20
2018-12-17T04:34:38.320Z,103.00
2018-12-17T04:35:38.286Z,106.00
2018-12-17T04:36:38.248Z,102.00
2018-12-17T04:37:38.211Z,101.20
2018-12-17T04:38:38.174Z,102.40
2018-12-17T04:39:38.140Z,105.40
2018-12-17T04:40:38.103Z,103.20
2018-12-17T04:41:38.068Z,105.70
2018-12-17T04:42:38.035Z,106.00
2018-12-17T04:43:37.995Z,101.50
2018-12-17T04:44:37.958Z,109.90
2018-12-17T04:45:37.920Z,103.80
2018-12-17T04:46:37.884Z,113.00
2018-12-17T04:47:37.849Z,103.40
2018-12-17T04:48:37.812Z,102.30
2018-12-17T04:49:37.774Z,100.20
2018-12-17T04:50:37.739Z,105.80
2018-12-17T04:51:37.733Z,100.50
2018-12-17T04:52:37.666Z,97.10
2018-12-17T04:53:37.644Z,101.30
2018-12-17T04:54:37.592Z,99.80
2018-12-17T04:55:37.557Z,103.20
2018-12-17T04:56:37.521Z,97.70
2018-12-17T04:57:37.486Z,99.40
2018-12-17T04:58:37.447Z,103.50
2018-12-17T04:59:37.414Z,105.20
2018-12-17T05:00:37.374Z,101.10
2018-12-17T05:01:37.338Z,106.80
2018-12-17T05:02:37.303Z,102.70
2018-12-17T05:03:37.267Z,108.70
2018-12-17T05:04:37.231Z,113.80
2018-12-17T05:05:37.194Z,97.80
2018-12-17T05:06:37.157Z,104.20
2018-12-17T05:07:37.123Z,109.10
2018-12-17T05:08:37.084Z,113.10
2018-12-17T05:09:37.047Z,112.70
2018-12-17T05:10:37.013Z,112.50
2018-12-17T05:11:36.974Z,117.60
2018-12-17T05:12:36.939Z,124.00
2018-12-17T05:13:36.901Z,120.80
2018-12-17T05:14:36.874Z,115.40
2018-12-17T05:15:36.831Z,124.60
2018-12-17T05:16:36.793Z,122.30
2018-12-17T05:17:36.756Z,125.00
2018-12-17T05:18:36.719Z,117.50
2018-12-17T05:19:36.684Z,130.00
2018-12-17T05:20:36.646Z,142.50
2018-12-17T05:21:36.609Z,143.10
2018-12-17T05:22:36.581Z,142.70
2018-12-17T05:23:36.537Z,134.60
2018-12-17T05:24:36.501Z,156.40
2018-12-17T05:25:36.465Z,138.40
2018-12-17T05:26:36.430Z,155.00
2018-12-17T05:27:36.393Z,151.80
2018-12-17T05:28:36.356Z,141.90
2018-12-17T05:29:36.319Z,162.20
2018-12-17T05:30:36.282Z,177.30
2018-12-17T05:31:36.246Z,191.50
2018-12-17T05:32:36.212Z,160.80
2018-12-17T05:33:36.176Z,173.30
2018-12-17T05:34:36.142Z,174.40
2018-12-17T05:35:36.102Z,216.00
2018-12-17T05:36:36.064Z,202.50
2018-12-17T05:37:36.028Z,191.50
2018-12-17T05:38:35.995Z,181.70
2018-12-17T05:39:35.956Z,192.90
2018-12-17T05:40:35.922Z,163.50
2018-12-17T05:41:35.884Z,193.60
2018-12-17T05:42:35.847Z,181.40
2018-12-17T05:43:35.811Z,222.30
2018-12-17T05:44:35.778Z,203.30
2018-12-17T05:45:35.803Z,196.10
2018-12-17T05:46:35.704Z,213.50
2018-12-17T05:47:35.667Z,200.00
2018-12-17T05:48:35.628Z,204.40
2018-12-17T05:49:35.591Z,188.70
2018-12-17T05:50:35.557Z,222.90
2018-12-17T05:51:35.520Z,231.00
2018-12-17T05:52:35.488Z,231.20
2018-12-17T05:53:35.448Z,221.70
2018-12-17T05:54:35.410Z,236.80
2018-12-17T05:55:35.376Z,247.30
2018-12-17T05:56:35.339Z,250.40
2018-12-17T05:57:35.302Z,270.70
2018-12-17T05:58:35.267Z,252.40
2018-12-17T05:59:35.233Z,273.40
2018-12-17T06:00:35.194Z,286.70
2018-12-17T06:01:35.156Z,274.60
2018-12-17T06:02:35.120Z,311.60
2018-12-17T06:03:36.116Z,293.00
2018-12-17T06:04:35.049Z,303.80
2018-12-17T06:05:35.011Z,328.50
2018-12-17T06:06:34.975Z,364.30
2018-12-17T06:07:34.939Z,351.80
2018-12-17T06:08:34.902Z,354.90
2018-12-17T06:09:34.865Z,387.00
2018-12-17T06:10:34.831Z,348.00
2018-12-17T06:11:34.795Z,305.70
2018-12-17T06:12:34.759Z,358.90
2018-12-17T06:13:34.722Z,347.10
2018-12-17T06:14:34.684Z,331.60
2018-12-17T06:15:34.650Z,319.90
2018-12-17T06:16:34.612Z,313.70
2018-12-17T06:17:34.575Z,320.90
2018-12-17T06:18:34.540Z,303.40
2018-12-17T06:19:34.503Z,291.00
2018-12-17T06:20:34.468Z,312.40
2018-12-17T06:21:34.432Z,320.00
2018-12-17T06:22:34.394Z,328.50
2018-12-17T06:23:34.358Z,331.80
2018-12-17T06:24:34.323Z,326.50
2018-12-17T06:25:34.285Z,309.10
2018-12-17T06:26:34.251Z,340.80
2018-12-17T06:27:36.874Z,345.40
2018-12-17T06:28:34.177Z,291.80
2018-12-17T06:29:35.702Z,321.50
2018-12-17T06:30:34.104Z,313.80
2018-12-17T06:31:34.069Z,312.90
2018-12-17T06:32:34.034Z,334.20
2018-12-17T06:33:33.997Z,390.50
2018-12-17T06:34:33.961Z,318.20
2018-12-17T06:35:33.925Z,343.70
2018-12-17T06:36:33.889Z,364.30
2018-12-17T06:37:33.851Z,335.20
2018-12-17T06:38:33.815Z,352.00
2018-12-17T06:39:33.779Z,398.40
2018-12-17T06:40:33.742Z,378.70
2018-12-17T06:41:33.706Z,381.50
2018-12-17T06:42:33.670Z,326.40
2018-12-17T06:43:33.634Z,315.60
2018-12-17T06:44:33.599Z,366.20
2018-12-17T06:45:33.563Z,439.30
2018-12-17T06:46:33.525Z,414.50
2018-12-17T06:47:33.490Z,402.20
2018-12-17T06:48:33.457Z,390.80
2018-12-17T06:49:33.417Z,404.40
2018-12-17T06:50:33.383Z,433.40
2018-12-17T06:51:33.345Z,403.10
2018-12-17T06:52:33.309Z,412.40
2018-12-17T06:53:33.273Z,335.20
2018-12-17T06:54:33.236Z,358.60
2018-12-17T06:55:33.200Z,407.80
2018-12-17T06:56:33.165Z,427.20
2018-12-17T06:57:33.129Z,424.10
2018-12-17T06:58:33.093Z,413.40
2018-12-17T06:59:33.057Z,431.90
2018-12-17T07:00:33.021Z,371.70
2018-12-17T07:01:32.986Z,410.20
2018-12-17T07:02:32.948Z,449.50
2018-12-17T07:03:32.912Z,383.00
2018-12-17T07:04:32.879Z,408.90
2018-12-17T07:05:32.840Z,438.40
2018-12-17T07:06:32.806Z,481.80
2018-12-17T07:07:32.768Z,473.00
2018-12-17T07:08:32.734Z,460.80
2018-12-17T07:09:32.700Z,459.50
2018-12-17T07:10:32.661Z,397.50
2018-12-17T07:11:32.626Z,434.60
2018-12-17T07:12:32.589Z,347.30
2018-12-17T07:13:32.552Z,319.60
2018-12-17T07:14:36.489Z,329.20
2018-12-17T07:15:32.484Z,356.40
2018-12-17T07:16:32.445Z,358.30
2018-12-17T07:17:32.411Z,348.90
2018-12-17T07:18:32.374Z,319.20
2018-12-17T07:19:32.337Z,343.40
2018-12-17T07:20:32.301Z,326.20
2018-12-17T07:21:32.266Z,340.90
2018-12-17T07:22:32.229Z,325.90
2018-12-17T07:23:32.196Z,344.70
2018-12-17T07:24:32.160Z,310.80
2018-12-17T07:25:32.122Z,310.60
2018-12-17T07:26:32.087Z,337.10
2018-12-17T07:27:32.051Z,354.50
2018-12-17T07:28:32.016Z,363.90
2018-12-17T07:29:31.980Z,330.80
2018-12-17T07:30:31.943Z,376.30
2018-12-17T07:31:31.908Z,332.70
2018-12-17T07:32:31.872Z,322.30
2018-12-17T07:33:31.836Z,310.70
2018-12-17T07:34:31.800Z,324.90
2018-12-17T07:35:31.764Z,306.90
2018-12-17T07:36:31.731Z,296.60
2018-12-17T07:37:31.694Z,300.10
2018-12-17T07:38:31.658Z,279.30
2018-12-17T07:39:31.629Z,280.40
2018-12-17T07:40:31.587Z,276.50
2018-12-17T07:41:31.549Z,266.20
2018-12-17T07:42:31.515Z,264.10
2018-12-17T07:43:31.478Z,248.30
2018-12-17T07:44:31.443Z,270.20
2018-12-17T07:45:31.406Z,267.20
2018-12-17T07:46:31.370Z,268.80
2018-12-17T07:47:31.336Z,267.90
2018-12-17T07:48:31.299Z,273.70
2018-12-17T07:49:31.264Z,284.50
2018-12-17T07:50:31.227Z,289.50
2018-12-17T07:51:31.194Z,275.30
2018-12-17T07:52:31.159Z,287.70
2018-12-17T07:53:31.119Z,277.80
2018-12-17T07:54:31.084Z,279.40
2018-12-17T07:55:31.048Z,281.60
2018-12-17T07:56:31.798Z,283.30
2018-12-17T07:57:30.977Z,286.70
2018-12-17T07:58:30.940Z,277.20
2018-12-17T07:59:30.906Z,261.70
2018-12-17T08:00:30.879Z,299.10
2018-12-17T08:01:30.833Z,284.30
2018-12-17T08:02:30.797Z,287.80
2018-12-17T08:03:30.762Z,286.90
2018-12-17T08:04:30.727Z,289.00
2018-12-17T08:05:30.688Z,296.90
2018-12-17T08:06:30.653Z,282.90
2018-12-17T08:07:30.619Z,286.00
2018-12-17T08:08:35.399Z,299.30
2018-12-17T08:09:30.546Z,293.50
2018-12-17T08:10:30.510Z,300.30
2018-12-17T08:11:30.476Z,297.20
2018-12-17T08:12:30.438Z,298.10
2018-12-17T08:13:30.402Z,272.20
2018-12-17T08:14:30.366Z,304.00
2018-12-17T08:15:30.332Z,284.70
2018-12-17T08:16:30.295Z,290.50
2018-12-17T08:17:30.259Z,316.60
2018-12-17T08:18:30.223Z,289.70
2018-12-17T08:19:30.190Z,299.50
2018-12-17T08:20:30.150Z,318.20
2018-12-17T08:21:30.116Z,302.60
2018-12-17T08:22:30.080Z,321.80
2018-12-17T08:23:30.043Z,309.00
2018-12-17T08:24:31.253Z,313.00
2018-12-17T08:25:29.972Z,316.00
2018-12-17T08:26:29.935Z,351.50
2018-12-17T08:27:29.900Z,351.50
2018-12-17T08:28:29.865Z,313.40
2018-12-17T08:29:29.828Z,358.00
2018-12-17T08:30:29.792Z,340.60
2018-12-17T08:31:29.757Z,314.60
2018-12-17T08:32:29.721Z,375.70
2018-12-17T08:33:29.685Z,421.40
2018-12-17T08:34:29.650Z,475.90
2018-12-17T08:35:29.613Z,395.70
2018-12-17T08:36:29.583Z,430.10
2018-12-17T08:37:29.542Z,423.80
2018-12-17T08:38:29.507Z,458.80
2018-12-17T08:39:29.471Z,342.00
2018-12-17T08:40:29.437Z,346.60
2018-12-17T08:41:29.400Z,342.50
2018-12-17T08:42:29.363Z,354.40
2018-12-17T08:43:29.329Z,358.90
2018-12-17T08:44:29.293Z,417.30
2018-12-17T08:45:30.495Z,413.50
2018-12-17T08:46:29.224Z,363.50
2018-12-17T08:47:29.187Z,360.70
2018-12-17T08:48:29.151Z,310.90
2018-12-17T08:49:29.116Z,388.10
2018-12-17T08:50:29.081Z,379.90
2018-12-17T08:51:29.044Z,405.20
2018-12-17T08:52:29.010Z,358.30
2018-12-17T08:53:28.977Z,386.40
2018-12-17T08:54:28.939Z,407.80
2018-12-17T08:55:28.903Z,407.90
2018-12-17T08:56:28.868Z,441.10
2018-12-17T08:57:28.831Z,374.90
2018-12-17T08:58:28.797Z,386.60
2018-12-17T08:59:28.761Z,476.90
2018-12-17T09:00:28.727Z,455.10
2018-12-17T09:01:28.692Z,405.70
2018-12-17T09:02:28.654Z,378.00
2018-12-17T09:03:28.622Z,429.50
2018-12-17T09:04:28.585Z,387.20
2018-12-17T09:05:28.549Z,379.80
2018-12-17T09:06:28.514Z,418.10
2018-12-17T09:07:28.479Z,356.40
2018-12-17T09:08:28.443Z,387.10
2018-12-17T09:09:28.466Z,367.90
2018-12-17T09:10:28.372Z,388.10
2018-12-17T09:11:28.337Z,367.70
2018-12-17T09:12:28.311Z,333.00
2018-12-17T09:13:28.266Z,321.50
2018-12-17T09:14:28.232Z,367.50
2018-12-17T09:15:28.201Z,342.10
2018-12-17T09:16:28.161Z,350.10
2018-12-17T09:17:28.126Z,352.30
2018-12-17T09:18:28.090Z,351.50
2018-12-17T09:19:28.056Z,351.70
2018-12-17T09:20:28.021Z,358.00
2018-12-17T09:21:27.985Z,360.10
2018-12-17T09:22:27.951Z,342.80
2018-12-17T09:23:27.917Z,334.00
2018-12-17T09:24:27.880Z,312.80
2018-12-17T09:25:27.843Z,289.60
2018-12-17T09:26:27.809Z,255.90
2018-12-17T09:27:27.775Z,253.80
2018-12-17T09:28:27.740Z,265.70
2018-12-17T09:29:27.704Z,266.10
2018-12-17T09:30:27.670Z,252.50
2018-12-17T09:31:27.677Z,319.20
2018-12-17T09:32:27.598Z,258.90
2018-12-17T09:33:28.731Z,250.80
2018-12-17T09:34:27.529Z,251.70
2018-12-17T09:35:27.494Z,276.80
2018-12-17T09:36:27.459Z,231.40
2018-12-17T09:37:27.423Z,243.20
2018-12-17T09:38:27.389Z,256.70
2018-12-17T09:39:27.356Z,249.50
2018-12-17T09:40:27.319Z,265.10
2018-12-17T09:41:27.283Z,231.80
2018-12-17T09:42:27.249Z,215.20
2018-12-17T09:43:27.215Z,198.50
2018-12-17T09:44:27.180Z,194.00
2018-12-17T09:45:27.144Z,217.20
2018-12-17T09:46:27.109Z,227.50
2018-12-17T09:47:27.075Z,194.80
2018-12-17T09:48:27.040Z,212.10
2018-12-17T09:49:27.005Z,208.90
2018-12-17T09:50:26.980Z,204.10
2018-12-17T09:51:26.936Z,195.40
2018-12-17T09:52:26.900Z,188.10
2018-12-17T09:53:26.869Z,192.70
2018-12-17T09:54:26.830Z,169.20
2018-12-17T09:55:26.795Z,169.40
2018-12-17T09:56:26.762Z,172.70
2018-12-17T09:57:26.727Z,182.70
2018-12-17T09:58:26.691Z,163.50
2018-12-17T09:59:26.658Z,166.60
2018-12-17T10:00:26.621Z,153.00
2018-12-17T10:01:26.588Z,161.40
2018-12-17T10:02:26.554Z,149.90
2018-12-17T10:03:26.519Z,146.50
2018-12-17T10:04:26.484Z,150.30
2018-12-17T10:05:26.450Z,152.10
2018-12-17T10:06:26.412Z,146.90
2018-12-17T10:07:30.397Z,148.60
2018-12-17T10:08:26.347Z,155.40
2018-12-17T10:09:26.310Z,148.40
2018-12-17T10:10:26.274Z,148.70
2018-12-17T10:11:26.240Z,141.20
2018-12-17T10:12:26.206Z,135.10
2018-12-17T10:13:26.170Z,138.20
2018-12-17T10:14:26.136Z,134.10
2018-12-17T10:15:26.102Z,150.80
2018-12-17T10:16:26.068Z,140.20
2018-12-17T10:17:26.032Z,130.50
2018-12-17T10:18:25.999Z,133.40
2018-12-17T10:19:25.964Z,134.80
2018-12-17T10:20:25.930Z,125.30
2018-12-17T10:21:25.894Z,141.00
2018-12-17T10:22:25.860Z,143.30
2018-12-17T10:23:25.825Z,123.10
2018-12-17T10:24:25.790Z,121.30
2018-12-17T10:25:25.756Z,119.50
2018-12-17T10:26:25.721Z,113.80
2018-12-17T10:27:25.687Z,112.10
2018-12-17T10:28:25.652Z,114.00
2018-12-17T10:29:25.637Z,105.10
2018-12-17T10:30:32.279Z,108.90
2018-12-17T10:31:25.548Z,114.60
2018-12-17T10:32:25.514Z,102.00
2018-12-17T10:33:25.779Z,106.80
2018-12-17T10:34:25.453Z,113.20
2018-12-17T10:35:25.410Z,112.00
2018-12-17T10:36:25.376Z,121.90
2018-12-17T10:37:25.340Z,107.40
2018-12-17T10:38:25.306Z,110.50
2018-12-17T10:39:25.272Z,110.20
2018-12-17T10:40:25.237Z,106.70
2018-12-17T10:41:25.203Z,105.90
2018-12-17T10:42:25.168Z,97.60
2018-12-17T10:43:25.134Z,107.50
2018-12-17T10:44:25.101Z,105.70
2018-12-17T10:45:25.065Z,105.10
2018-12-17T10:46:25.030Z,103.10
2018-12-17T10:47:24.998Z,98.10
2018-12-17T10:48:24.961Z,92.80
2018-12-17T10:49:24.925Z,90.90
2018-12-17T10:50:24.892Z,89.10
2018-12-17T10:51:24.857Z,95.20
2018-12-17T10:52:24.824Z,99.80
2018-12-17T10:53:24.789Z,85.40
2018-12-17T10:54:24.754Z,86.70
2018-12-17T10:55:24.719Z,92.00
2018-12-17T10:56:24.686Z,95.50
2018-12-17T10:57:24.649Z,98.90
2018-12-17T10:58:24.614Z,96.40
2018-12-17T10:59:24.580Z,91.90
2018-12-17T11:00:24.545Z,92.80
2018-12-17T11:01:24.510Z,94.30
2018-12-17T11:02:24.477Z,95.10
2018-12-17T11:03:24.442Z,96.50
2018-12-17T11:04:24.409Z,89.80
2018-12-17T11:05:24.375Z,94.10
2018-12-17T11:06:24.340Z,93.90
2018-12-17T11:07:24.309Z,92.40
2018-12-17T11:08:24.269Z,92.40
2018-12-17T11:09:24.237Z,102.20
2018-12-17T11:10:24.200Z,102.30
2018-12-17T11:11:24.167Z,102.20
2018-12-17T11:12:24.132Z,106.90
2018-12-17T11:13:24.096Z,102.50
2018-12-17T11:14:24.063Z,106.30
2018-12-17T11:15:24.028Z,99.50
2018-12-17T11:16:23.993Z,104.10
2018-12-17T11:17:23.958Z,117.90
2018-12-17T11:18:23.924Z,119.70
2018-12-17T11:19:23.892Z,118.20
2018-12-17T11:20:23.855Z,109.40
2018-12-17T11:21:23.819Z,111.40
2018-12-17T11:22:23.786Z,105.80
2018-12-17T11:23:23.751Z,112.00
2018-12-17T11:24:23.717Z,114.40
2018-12-17T11:25:23.682Z,114.10
2018-12-17T11:26:23.649Z,118.70
2018-12-17T11:27:23.613Z,107.00
2018-12-17T11:28:23.578Z,105.70
2018-12-17T11:29:23.544Z,103.70
2018-12-17T11:30:23.509Z,103.70
2018-12-17T11:31:23.475Z,114.40
2018-12-17T11:32:23.441Z,118.30
2018-12-17T11:33:23.405Z,101.80
2018-12-17T11:34:23.373Z,112.90
2018-12-17T11:35:23.336Z,106.20
2018-12-17T11:36:23.301Z,107.80
2018-12-17T11:37:23.268Z,126.20
2018-12-17T11:38:23.233Z,113.90
2018-12-17T11:39:23.198Z,132.20
2018-12-17T11:40:23.164Z,125.50
2018-12-17T11:41:23.128Z,121.30
2018-12-17T11:42:23.093Z,131.80
2018-12-17T11:43:23.059Z,123.30
2018-12-17T11:44:23.027Z,126.30
2018-12-17T11:45:22.991Z,120.50
2018-12-17T11:46:22.955Z,111.90
2018-12-17T11:47:22.922Z,112.50
2018-12-17T11:48:22.887Z,109.80
2018-12-17T11:49:22.851Z,103.60
2018-12-17T11:50:22.818Z,116.10
2018-12-17T11:51:22.785Z,110.00
2018-12-17T11:52:22.748Z,115.50
2018-12-17T11:53:22.715Z,112.50
2018-12-17T11:54:22.678Z,112.60
2018-12-17T11:55:22.647Z,117.40
2018-12-17T11:56:22.609Z,112.10
2018-12-17T11:57:22.576Z,112.80
2018-12-17T11:58:22.543Z,107.50
2018-12-17T11:59:22.513Z,111.80
2018-12-17T12:00:22.472Z,106.40
2018-12-17T12:01:22.436Z,111.20
2018-12-17T12:02:22.406Z,114.90
2018-12-17T12:03:22.368Z,115.70
2018-12-17T12:04:22.335Z,115.90
2018-12-17T12:05:22.298Z,114.90
2018-12-17T12:06:22.265Z,117.80
2018-12-17T12:07:22.228Z,128.40
2018-12-17T12:08:22.198Z,117.90
2018-12-17T12:09:22.160Z,120.90
2018-12-17T12:10:22.125Z,123.70
2018-12-17T12:11:22.091Z,115.90
2018-12-17T12:12:22.058Z,118.20
2018-12-17T12:13:22.021Z,113.30
2018-12-17T12:14:21.987Z,117.00
2018-12-17T12:15:21.955Z,128.10
2018-12-17T12:16:21.921Z,124.40
2018-12-17T12:17:21.885Z,116.80
2018-12-17T12:18:21.848Z,117.40
2018-12-17T12:19:21.814Z,119.90
2018-12-17T12:20:21.779Z,123.10
2018-12-17T12:21:21.744Z,117.20
2018-12-17T12:22:21.709Z,125.10
2018-12-17T12:23:21.674Z,125.40
2018-12-17T12:24:21.642Z,128.40
2018-12-17T12:25:21.606Z,126.10
2018-12-17T12:26:21.570Z,113.70
2018-12-17T12:27:21.537Z,133.00
2018-12-17T12:28:21.502Z,145.70
2018-12-17T12:29:21.468Z,129.90
2018-12-17T12:30:21.433Z,139.60
2018-12-17T12:31:21.398Z,134.40
2018-12-17T12:32:21.365Z,132.70
2018-12-17T12:33:21.329Z,132.60
2018-12-17T12:34:21.294Z,132.20
2018-12-17T12:35:21.259Z,141.60
2018-12-17T12:36:21.225Z,128.50